Terminal Aerodrome Forecast
Issued by NWS

Home | Current Version | Previous Version | Graphics & Text | Print | Product List | Glossary On
Versions: 1 2 3 4 5 6 7 8 9 10 11 12 13 14 15 16 17 18 19
000
FTUS43 KGRB 170900 AAA
TAFCWA
TAF AMD
KCWA 170939Z 1710/1806 11012G20KT P6SM -RASN SCT025 BKN060
      WS015/16040KT
      TEMPO 1710/1711 2SM -SN BKN018
     FM171100 14010G16KT 3SM -SN BKN020 OVC035
      TEMPO 1711/1713 1SM -SN OVC012
     FM171400 24009G15KT P6SM BKN025 BKN040
      TEMPO 1714/1716 -RA
     FM172000 29010G17KT P6SM BKN035
     FM180300 31004KT 4SM BR SCT040
      AMD LTD TO CLD VIS AND WIND TIL 171200=

USA.gov is the U.S. government's official web portal to all federal, state and local government web resources and services.